sensor_id;sensor_type;location;lat;lon;timestamp;pressure;altitude;pressure_sealevel;temperature;humidity
67457;BME280;54319;52.038;4.640;2023-05-01T00:00:05;101868.59;;;9.08;86.58
67457;BME280;54319;52.038;4.640;2023-05-01T00:02:31;101915.44;;;9.35;86.22
67457;BME280;54319;52.038;4.640;2023-05-01T00:04:58;101909.72;;;9.22;86.62
67457;BME280;54319;52.038;4.640;2023-05-01T00:07:26;101910.69;;;9.29;86.76
67457;BME280;54319;52.038;4.640;2023-05-01T00:09:55;101911.06;;;9.26;86.62
67457;BME280;54319;52.038;4.640;2023-05-01T00:12:22;101889.00;;;9.12;86.93
67457;BME280;54319;52.038;4.640;2023-05-01T00:14:48;101899.53;;;9.16;86.49
67457;BME280;54319;52.038;4.640;2023-05-01T00:17:16;101899.53;;;9.16;86.75
67457;BME280;54319;52.038;4.640;2023-05-01T00:19:43;101901.59;;;9.14;87.11
67457;BME280;54319;52.038;4.640;2023-05-01T00:22:09;101891.06;;;9.10;86.93
67457;BME280;54319;52.038;4.640;2023-05-01T00:24:37;101882.19;;;9.08;86.78
67457;BME280;54319;52.038;4.640;2023-05-01T00:27:04;101890.34;;;9.08;86.87
67457;BME280;54319;52.038;4.640;2023-05-01T00:29:30;101863.38;;;8.98;87.04
67457;BME280;54319;52.038;4.640;2023-05-01T00:31:57;101881.00;;;9.11;86.94
67457;BME280;54319;52.038;4.640;2023-05-01T00:34:24;101885.41;;;9.12;87.35
67457;BME280;54319;52.038;4.640;2023-05-01T00:36:50;101876.91;;;9.15;87.28
67457;BME280;54319;52.038;4.640;2023-05-01T00:39:17;101877.41;;;9.19;87.32
67457;BME280;54319;52.038;4.640;2023-05-01T00:41:45;101881.47;;;9.23;87.30
67457;BME280;54319;52.038;4.640;2023-05-01T00:44:12;101877.34;;;9.27;87.75
67457;BME280;54319;52.038;4.640;2023-05-01T00:46:38;101868.84;;;9.30;86.74
67457;BME280;54319;52.038;4.640;2023-05-01T00:49:05;101860.50;;;9.32;86.50
67457;BME280;54319;52.038;4.640;2023-05-01T00:51:32;101865.59;;;9.35;86.62
67457;BME280;54319;52.038;4.640;2023-05-01T00:53:59;101814.84;;;9.02;86.60
67457;BME280;54319;52.038;4.640;2023-05-01T00:56:26;101825.47;;;9.20;86.51
67457;BME280;54319;52.038;4.640;2023-05-01T00:58:55;101823.69;;;9.04;86.43
67457;BME280;54319;52.038;4.640;2023-05-01T01:01:22;101852.44;;;9.38;86.24
67457;BME280;54319;52.038;4.640;2023-05-01T01:03:48;101848.88;;;9.38;86.36
67457;BME280;54319;52.038;4.640;2023-05-01T01:06:22;101842.09;;;9.34;86.56
67457;BME280;54319;52.038;4.640;2023-05-01T01:08:59;101840.50;;;9.39;86.21
67457;BME280;54319;52.038;4.640;2023-05-01T01:11:36;101823.22;;;9.32;86.27
67457;BME280;54319;52.038;4.640;2023-05-01T01:14:11;101816.78;;;9.25;86.16
67457;BME280;54319;52.038;4.640;2023-05-01T01:16:45;101744.34;;;8.92;86.22
67457;BME280;54319;52.038;4.640;2023-05-01T01:19:31;101821.28;;;9.41;86.26
67457;BME280;54319;52.038;4.640;2023-05-01T01:22:04;101824.00;;;9.41;86.36
67457;BME280;54319;52.038;4.640;2023-05-01T01:24:47;101813.78;;;9.43;86.43
67457;BME280;54319;52.038;4.640;2023-05-01T01:27:39;101815.97;;;9.48;86.00
67457;BME280;54319;52.038;4.640;2023-05-01T01:33:41;101798.59;;;9.49;85.40
67457;BME280;54319;52.038;4.640;2023-05-01T01:36:15;101803.03;;;9.50;84.96
67457;BME280;54319;52.038;4.640;2023-05-01T01:38:45;101783.94;;;9.50;84.75
67457;BME280;54319;52.038;4.640;2023-05-01T01:41:16;101778.31;;;9.51;84.42
67457;BME280;54319;52.038;4.640;2023-05-01T01:43:48;101780.66;;;9.54;83.74
67457;BME280;54319;52.038;4.640;2023-05-01T01:46:17;101774.69;;;9.59;82.67
67457;BME280;54319;52.038;4.640;2023-05-01T01:48:48;101774.13;;;9.64;82.63
67457;BME280;54319;52.038;4.640;2023-05-01T01:51:18;101766.81;;;9.64;82.51
67457;BME280;54319;52.038;4.640;2023-05-01T01:53:50;101774.97;;;9.64;82.47
67457;BME280;54319;52.038;4.640;2023-05-01T01:56:18;101772.03;;;9.66;82.38
67457;BME280;54319;52.038;4.640;2023-05-01T01:58:47;101712.00;;;9.21;81.85
67457;BME280;54319;52.038;4.640;2023-05-01T02:01:17;101719.00;;;9.38;81.57
67457;BME280;54319;52.038;4.640;2023-05-01T02:03:47;101769.66;;;9.71;81.67
67457;BME280;54319;52.038;4.640;2023-05-01T02:06:14;101757.06;;;9.70;81.72
67457;BME280;54319;52.038;4.640;2023-05-01T02:08:43;101764.84;;;9.73;82.10
67457;BME280;54319;52.038;4.640;2023-05-01T02:11:13;101756.84;;;9.72;82.13
67457;BME280;54319;52.038;4.640;2023-05-01T02:13:41;101752.63;;;9.69;82.39
67457;BME280;54319;52.038;4.640;2023-05-01T02:16:10;101752.63;;;9.69;82.48
67457;BME280;54319;52.038;4.640;2023-05-01T02:18:39;101723.28;;;9.56;82.53
67457;BME280;54319;52.038;4.640;2023-05-01T02:21:08;101740.38;;;9.65;82.17
67457;BME280;54319;52.038;4.640;2023-05-01T02:23:37;101743.97;;;9.65;82.07
67457;BME280;54319;52.038;4.640;2023-05-01T02:26:05;101746.03;;;9.63;82.13
67457;BME280;54319;52.038;4.640;2023-05-01T02:28:35;101736.16;;;9.62;81.67
67457;BME280;54319;52.038;4.640;2023-05-01T02:31:05;101730.88;;;9.61;81.78
67457;BME280;54319;52.038;4.640;2023-05-01T02:33:32;101740.97;;;9.60;81.87
67457;BME280;54319;52.038;4.640;2023-05-01T02:35:58;101723.09;;;9.58;81.49
67457;BME280;54319;52.038;4.640;2023-05-01T02:38:27;101705.66;;;9.44;81.22
67457;BME280;54319;52.038;4.640;2023-05-01T02:40:56;101722.63;;;9.54;81.45
67457;BME280;54319;52.038;4.640;2023-05-01T02:43:24;101722.63;;;9.54;81.31
67457;BME280;54319;52.038;4.640;2023-05-01T02:45:52;101706.25;;;9.39;81.44
67457;BME280;54319;52.038;4.640;2023-05-01T02:48:23;101726.75;;;9.50;81.46
67457;BME280;54319;52.038;4.640;2023-05-01T02:50:51;101718.25;;;9.45;81.33
67457;BME280;54319;52.038;4.640;2023-05-01T02:53:20;101721.56;;;9.40;81.39
67457;BME280;54319;52.038;4.640;2023-05-01T02:55:49;101716.47;;;9.37;81.79
67457;BME280;54319;52.038;4.640;2023-05-01T02:58:16;101713.91;;;9.35;82.26
67457;BME280;54319;52.038;4.640;2023-05-01T03:00:42;101708.00;;;9.32;82.61
67457;BME280;54319;52.038;4.640;2023-05-01T03:03:09;101710.06;;;9.30;82.64
67457;BME280;54319;52.038;4.640;2023-05-01T03:05:37;101697.81;;;9.25;83.03
67457;BME280;54319;52.038;4.640;2023-05-01T03:08:04;101689.06;;;9.15;82.77
67457;BME280;54319;52.038;4.640;2023-05-01T03:10:31;101695.09;;;9.25;82.91
67457;BME280;54319;52.038;4.640;2023-05-01T03:12:59;101693.25;;;9.26;83.12
67457;BME280;54319;52.038;4.640;2023-05-01T03:15:26;101697.81;;;9.25;83.30
67457;BME280;54319;52.038;4.640;2023-05-01T03:17:52;101689.84;;;9.24;83.37
67457;BME280;54319;52.038;4.640;2023-05-01T03:20:19;101656.69;;;8.97;83.63
67457;BME280;54319;52.038;4.640;2023-05-01T03:22:45;101683.75;;;9.22;83.66
67457;BME280;54319;52.038;4.640;2023-05-01T03:25:12;101664.75;;;9.14;84.19
67457;BME280;54319;52.038;4.640;2023-05-01T03:27:39;101678.09;;;9.23;84.45
67457;BME280;54319;52.038;4.640;2023-05-01T03:30:08;101667.69;;;9.27;84.31
67457;BME280;54319;52.038;4.640;2023-05-01T03:32:35;101627.44;;;8.99;84.17
67457;BME280;54319;52.038;4.640;2023-05-01T03:35:02;101649.09;;;9.16;84.11
67457;BME280;54319;52.038;4.640;2023-05-01T03:37:29;101649.47;;;9.12;84.02
67457;BME280;54319;52.038;4.640;2023-05-01T03:39:55;101670.59;;;9.25;84.20
67457;BME280;54319;52.038;4.640;2023-05-01T03:42:22;101666.00;;;9.26;84.34
67457;BME280;54319;52.038;4.640;2023-05-01T03:44:49;101670.44;;;9.27;84.29
67457;BME280;54319;52.038;4.640;2023-05-01T03:47:17;101671.09;;;9.29;84.17
67457;BME280;54319;52.038;4.640;2023-05-01T03:49:44;101668.91;;;9.24;84.25
67457;BME280;54319;52.038;4.640;2023-05-01T03:52:10;101661.06;;;9.30;84.20
67457;BME280;54319;52.038;4.640;2023-05-01T03:54:38;101661.06;;;9.30;84.46
67457;BME280;54319;52.038;4.640;2023-05-01T03:57:05;101637.47;;;9.22;84.74
67457;BME280;54319;52.038;4.640;2023-05-01T03:59:32;101611.41;;;9.04;85.08
67457;BME280;54319;52.038;4.640;2023-05-01T04:01:59;101656.81;;;9.27;85.28
67457;BME280;54319;52.038;4.640;2023-05-01T04:04:27;101655.94;;;9.26;85.01
67457;BME280;54319;52.038;4.640;2023-05-01T04:06:54;101654.09;;;9.27;85.29
67457;BME280;54319;52.038;4.640;2023-05-01T04:09:21;101613.94;;;9.06;85.21
67457;BME280;54319;52.038;4.640;2023-05-01T04:11:47;101657.63;;;9.27;85.39
67457;BME280;54319;52.038;4.640;2023-05-01T04:14:14;101644.03;;;9.27;85.33
67457;BME280;54319;52.038;4.640;2023-05-01T04:16:41;101647.63;;;9.28;84.82
67457;BME280;54319;52.038;4.640;2023-05-01T04:19:07;101638.41;;;9.29;85.07
67457;BME280;54319;52.038;4.640;2023-05-01T04:21:36;101618.13;;;9.17;84.86
67457;BME280;54319;52.038;4.640;2023-05-01T04:24:02;101638.03;;;9.32;84.65
67457;BME280;54319;52.038;4.640;2023-05-01T04:26:29;101642.47;;;9.33;84.73
67457;BME280;54319;52.038;4.640;2023-05-01T04:28:56;101639.72;;;9.33;85.16
67457;BME280;54319;52.038;4.640;2023-05-01T04:31:22;101626.19;;;9.25;84.51
67457;BME280;54319;52.038;4.640;2023-05-01T04:33:49;101538.69;;;8.75;84.24
67457;BME280;54319;52.038;4.640;2023-05-01T04:36:16;101611.94;;;9.23;84.20
67457;BME280;54319;52.038;4.640;2023-05-01T04:38:44;101574.03;;;8.98;84.11
67457;BME280;54319;52.038;4.640;2023-05-01T04:41:10;101637.66;;;9.35;84.13
67457;BME280;54319;52.038;4.640;2023-05-01T04:43:37;101624.13;;;9.27;84.37
67457;BME280;54319;52.038;4.640;2023-05-01T04:46:03;101633.91;;;9.36;84.67
67457;BME280;54319;52.038;4.640;2023-05-01T04:48:30;101609.56;;;9.20;84.67
67457;BME280;54319;52.038;4.640;2023-05-01T04:50:57;101634.78;;;9.37;84.76
67457;BME280;54319;52.038;4.640;2023-05-01T04:53:23;101635.59;;;9.37;84.84
67457;BME280;54319;52.038;4.640;2023-05-01T04:55:51;101617.66;;;9.28;84.25
67457;BME280;54319;52.038;4.640;2023-05-01T04:58:18;101587.69;;;9.13;84.25
67457;BME280;54319;52.038;4.640;2023-05-01T05:00:45;101603.38;;;9.26;84.38
67457;BME280;54319;52.038;4.640;2023-05-01T05:03:12;101636.56;;;9.45;84.61
67457;BME280;54319;52.038;4.640;2023-05-01T05:05:38;101637.41;;;9.45;84.91
67457;BME280;54319;52.038;4.640;2023-05-01T05:08:05;101639.75;;;9.48;84.45
67457;BME280;54319;52.038;4.640;2023-05-01T05:10:33;101635.84;;;9.51;84.25
67457;BME280;54319;52.038;4.640;2023-05-01T05:13:01;101632.91;;;9.52;84.18
67457;BME280;54319;52.038;4.640;2023-05-01T05:15:28;101635.47;;;9.54;83.69
67457;BME280;54319;52.038;4.640;2023-05-01T05:17:55;101609.22;;;9.38;83.52
67457;BME280;54319;52.038;4.640;2023-05-01T05:20:21;101627.75;;;9.58;83.43
67457;BME280;54319;52.038;4.640;2023-05-01T05:22:48;101637.44;;;9.60;84.31
67457;BME280;54319;52.038;4.640;2023-05-01T05:25:15;101631.78;;;9.62;85.04
67457;BME280;54319;52.038;4.640;2023-05-01T05:27:41;101632.28;;;9.65;85.23
67457;BME280;54319;52.038;4.640;2023-05-01T05:30:10;101634.81;;;9.67;84.05
67457;BME280;54319;52.038;4.640;2023-05-01T05:32:37;101634.44;;;9.70;83.29
67457;BME280;54319;52.038;4.640;2023-05-01T05:35:05;101575.31;;;9.40;83.79
67457;BME280;54319;52.038;4.640;2023-05-01T05:37:33;101627.38;;;9.76;83.92
67457;BME280;54319;52.038;4.640;2023-05-01T05:40:00;101629.06;;;9.77;83.26
67457;BME280;54319;52.038;4.640;2023-05-01T05:42:26;101640.25;;;9.82;82.71
67457;BME280;54319;52.038;4.640;2023-05-01T05:44:53;101635.47;;;9.84;82.41
67457;BME280;54319;52.038;4.640;2023-05-01T05:47:21;101633.03;;;9.89;82.40
67457;BME280;54319;52.038;4.640;2023-05-01T05:49:48;101580.59;;;9.57;81.80
67457;BME280;54319;52.038;4.640;2023-05-01T05:52:14;101635.19;;;9.94;81.63
67457;BME280;54319;52.038;4.640;2023-05-01T05:54:41;101630.22;;;9.97;81.96
67457;BME280;54319;52.038;4.640;2023-05-01T05:57:08;101554.69;;;9.61;82.00
67457;BME280;54319;52.038;4.640;2023-05-01T05:59:35;101622.41;;;10.09;82.03
67457;BME280;54319;52.038;4.640;2023-05-01T06:02:01;101617.13;;;10.08;80.45
67457;BME280;54319;52.038;4.640;2023-05-01T06:04:29;101597.41;;;9.91;80.25
67457;BME280;54319;52.038;4.640;2023-05-01T06:06:56;101621.69;;;10.22;79.43
67457;BME280;54319;52.038;4.640;2023-05-01T06:09:24;101607.41;;;10.20;78.89
67457;BME280;54319;52.038;4.640;2023-05-01T06:11:51;101620.19;;;10.35;78.36
67457;BME280;54319;52.038;4.640;2023-05-01T06:14:18;101625.56;;;10.43;79.44
67457;BME280;54319;52.038;4.640;2023-05-01T06:16:44;101603.22;;;10.39;79.75
67457;BME280;54319;52.038;4.640;2023-05-01T06:19:11;101626.00;;;10.62;78.49
67457;BME280;54319;52.038;4.640;2023-05-01T06:21:41;101569.69;;;10.39;77.93
67457;BME280;54319;52.038;4.640;2023-05-01T06:24:07;101619.88;;;10.81;78.35
67457;BME280;54319;52.038;4.640;2023-05-01T06:26:34;101622.47;;;10.90;78.28
67457;BME280;54319;52.038;4.640;2023-05-01T06:29:01;101618.31;;;10.94;76.60
67457;BME280;54319;52.038;4.640;2023-05-01T06:31:27;101621.31;;;10.99;75.76
67457;BME280;54319;52.038;4.640;2023-05-01T06:33:54;101620.28;;;11.00;76.13
67457;BME280;54319;52.038;4.640;2023-05-01T06:36:20;101592.44;;;10.90;76.04
67457;BME280;54319;52.038;4.640;2023-05-01T06:38:48;101540.38;;;10.63;76.65
67457;BME280;54319;52.038;4.640;2023-05-01T06:41:15;101593.63;;;11.02;76.32
67457;BME280;54319;52.038;4.640;2023-05-01T06:43:42;101597.25;;;11.09;76.92
67457;BME280;54319;52.038;4.640;2023-05-01T06:46:09;101616.53;;;11.29;74.66
67457;BME280;54319;52.038;4.640;2023-05-01T06:48:36;101584.41;;;11.03;74.62
67457;BME280;54319;52.038;4.640;2023-05-01T06:51:03;101619.75;;;11.40;74.39
67457;BME280;54319;52.038;4.640;2023-05-01T06:53:30;101617.91;;;11.47;73.35
67457;BME280;54319;52.038;4.640;2023-05-01T06:55:58;101584.09;;;11.20;73.70
67457;BME280;54319;52.038;4.640;2023-05-01T06:58:24;101621.91;;;11.44;73.09
67457;BME280;54319;52.038;4.640;2023-05-01T07:00:52;101627.38;;;11.51;73.36
67457;BME280;54319;52.038;4.640;2023-05-01T07:03:19;101562.88;;;11.22;73.36
67457;BME280;54319;52.038;4.640;2023-05-01T07:05:46;101623.50;;;11.67;73.26
67457;BME280;54319;52.038;4.640;2023-05-01T07:08:12;101625.41;;;11.67;73.04
67457;BME280;54319;52.038;4.640;2023-05-01T07:10:39;101629.63;;;11.69;74.56
67457;BME280;54319;52.038;4.640;2023-05-01T07:13:07;101549.94;;;11.31;75.40
67457;BME280;54319;52.038;4.640;2023-05-01T07:15:33;101630.53;;;11.77;74.05
67457;BME280;54319;52.038;4.640;2023-05-01T07:18:00;101635.81;;;11.85;73.23
67457;BME280;54319;52.038;4.640;2023-05-01T07:20:30;101618.97;;;11.81;74.04
67457;BME280;54319;52.038;4.640;2023-05-01T07:22:57;101605.53;;;11.80;73.93
67457;BME280;54319;52.038;4.640;2023-05-01T07:25:23;101630.22;;;12.00;73.93
67457;BME280;54319;52.038;4.640;2023-05-01T07:27:50;101629.88;;;12.10;73.91
67457;BME280;54319;52.038;4.640;2023-05-01T07:30:18;101631.78;;;12.09;73.34
67457;BME280;54319;52.038;4.640;2023-05-01T07:32:45;101579.81;;;11.74;72.77
67457;BME280;54319;52.038;4.640;2023-05-01T07:35:12;101638.53;;;12.13;73.41
67457;BME280;54319;52.038;4.640;2023-05-01T07:37:38;101641.28;;;12.20;74.09
67457;BME280;54319;52.038;4.640;2023-05-01T07:40:06;101570.00;;;11.86;74.23
67457;BME280;54319;52.038;4.640;2023-05-01T07:42:35;101641.34;;;12.34;73.82
67457;BME280;54319;52.038;4.640;2023-05-01T07:45:02;101630.34;;;12.20;73.24
67457;BME280;54319;52.038;4.640;2023-05-01T07:47:30;101636.09;;;12.39;72.93
67457;BME280;54319;52.038;4.640;2023-05-01T07:49:57;101609.94;;;12.23;72.86
67457;BME280;54319;52.038;4.640;2023-05-01T07:52:25;101615.06;;;12.39;72.72
67457;BME280;54319;52.038;4.640;2023-05-01T07:54:52;101624.78;;;12.55;72.23
67457;BME280;54319;52.038;4.640;2023-05-01T07:57:18;101626.25;;;12.58;72.01
67457;BME280;54319;52.038;4.640;2023-05-01T07:59:45;101637.47;;;12.70;72.10
67457;BME280;54319;52.038;4.640;2023-05-01T08:02:12;101623.59;;;12.85;70.51
67457;BME280;54319;52.038;4.640;2023-05-01T08:04:40;101632.47;;;12.94;70.30
67457;BME280;54319;52.038;4.640;2023-05-01T08:07:07;101626.75;;;13.15;70.45
67457;BME280;54319;52.038;4.640;2023-05-01T08:09:33;101602.97;;;13.09;69.26
67457;BME280;54319;52.038;4.640;2023-05-01T08:12:00;101630.78;;;13.33;68.18
67457;BME280;54319;52.038;4.640;2023-05-01T08:14:28;101623.84;;;13.51;68.35
67457;BME280;54319;52.038;4.640;2023-05-01T08:16:55;101623.59;;;13.66;68.43
67457;BME280;54319;52.038;4.640;2023-05-01T08:19:21;101600.44;;;13.48;66.78
67457;BME280;54319;52.038;4.640;2023-05-01T08:21:50;101627.41;;;13.65;66.20
67457;BME280;54319;52.038;4.640;2023-05-01T08:24:16;101612.22;;;13.62;66.95
67457;BME280;54319;52.038;4.640;2023-05-01T08:26:43;101628.41;;;13.77;68.10
67457;BME280;54319;52.038;4.640;2023-05-01T08:29:10;101623.78;;;13.78;66.98
67457;BME280;54319;52.038;4.640;2023-05-01T08:31:37;101632.00;;;13.84;66.90
67457;BME280;54319;52.038;4.640;2023-05-01T08:34:04;101622.72;;;13.79;66.22
67457;BME280;54319;52.038;4.640;2023-05-01T08:36:31;101601.66;;;13.72;65.75
67457;BME280;54319;52.038;4.640;2023-05-01T08:38:59;101639.56;;;13.96;66.07
67457;BME280;54319;52.038;4.640;2023-05-01T08:41:26;101604.16;;;13.81;65.31
67457;BME280;54319;52.038;4.640;2023-05-01T08:43:55;101642.94;;;14.04;64.75
67457;BME280;54319;52.038;4.640;2023-05-01T08:46:31;101634.91;;;13.96;65.27
67457;BME280;54319;52.038;4.640;2023-05-01T08:48:59;101642.13;;;13.84;64.99
67457;BME280;54319;52.038;4.640;2023-05-01T08:51:29;101639.81;;;13.87;64.96
67457;BME280;54319;52.038;4.640;2023-05-01T08:53:58;101523.31;;;13.04;66.71
67457;BME280;54319;52.038;4.640;2023-05-01T08:56:27;101653.97;;;13.78;67.40
67457;BME280;54319;52.038;4.640;2023-05-01T08:58:57;101639.22;;;13.65;67.19
67457;BME280;54319;52.038;4.640;2023-05-01T09:01:26;101634.13;;;13.62;67.75
67457;BME280;54319;52.038;4.640;2023-05-01T09:03:53;101661.56;;;13.69;70.05
67457;BME280;54319;52.038;4.640;2023-05-01T09:06:20;101663.44;;;13.82;70.23
67457;BME280;54319;52.038;4.640;2023-05-01T09:08:47;101648.47;;;13.71;70.90
67457;BME280;54319;52.038;4.640;2023-05-01T09:11:15;101629.09;;;13.66;70.86
67457;BME280;54319;52.038;4.640;2023-05-01T09:13:44;101665.28;;;14.01;71.06
67457;BME280;54319;52.038;4.640;2023-05-01T09:16:11;101654.78;;;13.92;71.38
67457;BME280;54319;52.038;4.640;2023-05-01T09:18:38;101670.75;;;14.01;69.22
67457;BME280;54319;52.038;4.640;2023-05-01T09:21:05;101677.09;;;14.09;67.39
67457;BME280;54319;52.038;4.640;2023-05-01T09:23:32;101660.63;;;14.09;66.82
67457;BME280;54319;52.038;4.640;2023-05-01T09:26:03;101678.28;;;14.33;67.27
67457;BME280;54319;52.038;4.640;2023-05-01T09:28:41;101680.34;;;14.44;66.52
67457;BME280;54319;52.038;4.640;2023-05-01T09:31:22;101683.28;;;14.50;65.59
67457;BME280;54319;52.038;4.640;2023-05-01T09:33:53;101666.78;;;14.56;65.10
67457;BME280;54319;52.038;4.640;2023-05-01T09:36:20;101641.81;;;14.58;63.87
67457;BME280;54319;52.038;4.640;2023-05-01T09:38:48;101689.50;;;14.77;63.77
67457;BME280;54319;52.038;4.640;2023-05-01T09:41:14;101686.47;;;14.92;62.25
67457;BME280;54319;52.038;4.640;2023-05-01T09:43:48;101665.88;;;14.69;63.80
67457;BME280;54319;52.038;4.640;2023-05-01T09:46:15;101675.56;;;14.79;64.05
67457;BME280;54319;52.038;4.640;2023-05-01T09:48:51;101691.59;;;14.82;64.21
67457;BME280;54319;52.038;4.640;2023-05-01T09:51:23;101692.47;;;14.69;64.55
67457;BME280;54319;52.038;4.640;2023-05-01T09:53:51;101696.53;;;14.59;65.06
67457;BME280;54319;52.038;4.640;2023-05-01T09:56:18;101697.06;;;14.36;66.27
67457;BME280;54319;52.038;4.640;2023-05-01T09:58:46;101696.69;;;14.26;66.77
67457;BME280;54319;52.038;4.640;2023-05-01T10:01:13;101694.81;;;14.13;67.46
67457;BME280;54319;52.038;4.640;2023-05-01T10:03:42;101692.09;;;13.99;68.80
67457;BME280;54319;52.038;4.640;2023-05-01T10:06:10;101702.03;;;13.87;70.95
67457;BME280;54319;52.038;4.640;2023-05-01T10:08:44;101641.56;;;13.48;70.81
67457;BME280;54319;52.038;4.640;2023-05-01T10:11:11;101718.06;;;13.63;72.90
67457;BME280;54319;52.038;4.640;2023-05-01T10:13:38;101608.84;;;12.93;73.87
67457;BME280;54319;52.038;4.640;2023-05-01T10:16:07;101692.94;;;13.32;75.00
67457;BME280;54319;52.038;4.640;2023-05-01T10:18:53;101686.16;;;13.01;76.59
67457;BME280;54319;52.038;4.640;2023-05-01T10:21:21;101701.97;;;12.93;77.47
67457;BME280;54319;52.038;4.640;2023-05-01T10:23:47;101722.56;;;12.82;79.45
67457;BME280;54319;52.038;4.640;2023-05-01T10:26:16;101707.31;;;12.52;81.01
67457;BME280;54319;52.038;4.640;2023-05-01T10:28:46;101722.69;;;12.53;81.47
67457;BME280;54319;52.038;4.640;2023-05-01T10:31:15;101721.72;;;12.33;82.40
67457;BME280;54319;52.038;4.640;2023-05-01T10:33:42;101701.13;;;12.01;83.93
67457;BME280;54319;52.038;4.640;2023-05-01T10:36:12;101715.28;;;12.05;84.80
67457;BME280;54319;52.038;4.640;2023-05-01T10:38:42;101724.94;;;12.01;87.00
67457;BME280;54319;52.038;4.640;2023-05-01T10:41:12;101716.31;;;11.76;88.01
67457;BME280;54319;52.038;4.640;2023-05-01T10:43:39;101721.25;;;11.65;88.28
67457;BME280;54319;52.038;4.640;2023-05-01T10:46:29;101725.69;;;11.66;89.36
67457;BME280;54319;52.038;4.640;2023-05-01T10:48:56;101729.44;;;11.65;90.28
67457;BME280;54319;52.038;4.640;2023-05-01T10:51:23;101729.41;;;11.58;91.72
67457;BME280;54319;52.038;4.640;2023-05-01T10:54:20;101716.72;;;11.51;92.68
67457;BME280;54319;52.038;4.640;2023-05-01T10:56:47;101721.72;;;11.47;92.96
67457;BME280;54319;52.038;4.640;2023-05-01T10:59:14;101713.75;;;11.46;93.37
67457;BME280;54319;52.038;4.640;2023-05-01T11:01:42;101700.22;;;11.37;93.84
67457;BME280;54319;52.038;4.640;2023-05-01T11:04:44;101708.72;;;11.49;95.09
67457;BME280;54319;52.038;4.640;2023-05-01T11:07:13;101718.09;;;11.62;94.93
67457;BME280;54319;52.038;4.640;2023-05-01T11:09:43;101718.53;;;11.65;95.61
67457;BME280;54319;52.038;4.640;2023-05-01T11:12:11;101717.28;;;11.68;94.89
67457;BME280;54319;52.038;4.640;2023-05-01T11:15:00;101711.22;;;11.72;95.29
67457;BME280;54319;52.038;4.640;2023-05-01T11:17:47;101717.38;;;11.81;95.50
67457;BME280;54319;52.038;4.640;2023-05-01T11:20:46;101709.03;;;11.90;94.82
67457;BME280;54319;52.038;4.640;2023-05-01T11:23:17;101702.72;;;11.89;93.78
67457;BME280;54319;52.038;4.640;2023-05-01T11:25:45;101679.09;;;11.75;91.53
67457;BME280;54319;52.038;4.640;2023-05-01T11:28:17;101709.16;;;12.03;91.40
67457;BME280;54319;52.038;4.640;2023-05-01T11:30:44;101706.25;;;12.11;91.26
67457;BME280;54319;52.038;4.640;2023-05-01T11:33:13;101693.69;;;12.17;89.49
67457;BME280;54319;52.038;4.640;2023-05-01T11:35:55;101692.44;;;12.26;87.41
67457;BME280;54319;52.038;4.640;2023-05-01T11:38:22;101702.00;;;12.44;87.26
67457;BME280;54319;52.038;4.640;2023-05-01T11:40:53;101706.03;;;12.55;87.18
67457;BME280;54319;52.038;4.640;2023-05-01T11:43:20;101686.25;;;12.53;86.41
67457;BME280;54319;52.038;4.640;2023-05-01T11:45:51;101713.28;;;12.76;84.15
67457;BME280;54319;52.038;4.640;2023-05-01T11:48:20;101691.38;;;12.76;84.35
67457;BME280;54319;52.038;4.640;2023-05-01T11:50:47;101693.50;;;12.81;83.94
67457;BME280;54319;52.038;4.640;2023-05-01T11:53:15;101670.56;;;12.82;84.61
67457;BME280;54319;52.038;4.640;2023-05-01T11:55:42;101695.28;;;13.22;86.14
67457;BME280;54319;52.038;4.640;2023-05-01T11:58:08;101649.94;;;13.20;85.69
67457;BME280;54319;52.038;4.640;2023-05-01T12:00:37;101695.53;;;13.74;83.25
67457;BME280;54319;52.038;4.640;2023-05-01T12:03:05;101680.09;;;13.87;83.43
67457;BME280;54319;52.038;4.640;2023-05-01T12:05:35;101704.00;;;14.39;84.23
67457;BME280;54319;52.038;4.640;2023-05-01T12:08:08;101695.13;;;14.37;78.22
67457;BME280;54319;52.038;4.640;2023-05-01T12:10:36;101654.19;;;14.35;76.96
67457;BME280;54319;52.038;4.640;2023-05-01T12:13:04;101708.09;;;14.75;77.96
67457;BME280;54319;52.038;4.640;2023-05-01T12:15:33;101609.03;;;14.31;76.06
67457;BME280;54319;52.038;4.640;2023-05-01T12:18:01;101690.94;;;14.86;73.55
67457;BME280;54319;52.038;4.640;2023-05-01T12:20:37;101626.47;;;14.89;76.08
67457;BME280;54319;52.038;4.640;2023-05-01T12:23:05;101661.09;;;15.22;72.27
67457;BME280;54319;52.038;4.640;2023-05-01T12:25:33;101701.97;;;15.69;73.55
67457;BME280;54319;52.038;4.640;2023-05-01T12:28:01;101700.50;;;15.92;73.77
67457;BME280;54319;52.038;4.640;2023-05-01T12:30:28;101655.47;;;16.05;72.32
67457;BME280;54319;52.038;4.640;2023-05-01T12:32:56;101681.69;;;16.45;72.44
67457;BME280;54319;52.038;4.640;2023-05-01T12:35:28;101653.16;;;16.58;70.34
67457;BME280;54319;52.038;4.640;2023-05-01T12:37:57;101700.81;;;16.89;69.27
67457;BME280;54319;52.038;4.640;2023-05-01T12:40:25;101652.13;;;16.71;66.77
67457;BME280;54319;52.038;4.640;2023-05-01T12:42:55;101694.44;;;17.07;67.41
67457;BME280;54319;52.038;4.640;2023-05-01T12:45:23;101698.53;;;16.86;65.60
67457;BME280;54319;52.038;4.640;2023-05-01T12:47:50;101693.44;;;16.71;65.58
67457;BME280;54319;52.038;4.640;2023-05-01T12:50:18;101696.03;;;16.66;68.07
67457;BME280;54319;52.038;4.640;2023-05-01T12:52:45;101702.47;;;16.59;65.30
67457;BME280;54319;52.038;4.640;2023-05-01T12:55:13;101705.69;;;16.56;65.54
67457;BME280;54319;52.038;4.640;2023-05-01T12:57:53;101704.41;;;16.59;67.18
67457;BME280;54319;52.038;4.640;2023-05-01T13:00:19;101706.84;;;16.67;68.06
67457;BME280;54319;52.038;4.640;2023-05-01T13:02:47;101709.31;;;16.57;65.66
67457;BME280;54319;52.038;4.640;2023-05-01T13:05:14;101701.97;;;16.51;67.06